Terminal Aerodrome Forecast
Issued by NWS

Home | Current Version | Previous Version | Text Only | Print | Product List | Glossary On
Versions: 1 2 3 4 5 6 7 8 9 10 11 12 13 14 15 16 17 18 19 20 21 22 23 24 25 26 27 28
198
FTUS41 KGYX 240154 AAB
TAFAUG
TAF AMD
KAUG 240154Z 2402/2424 02009KT P6SM BKN026
     FM240500 04011KT 4SM BR OVC015
     FM240900 04012KT 2SM -SN OVC015
     FM241400 04013G25KT 2SM -FZRAPL OVC010 WS020/07035KT
     FM241800 04013G29KT 5SM -FZRA OVC008=

USA.gov is the U.S. government's official web portal to all federal, state and local government web resources and services.